Date,TemperatureHighF,TemperatureAvgF,TemperatureLowF,DewpointHighF,DewpointAvgF,DewpointLowF,HumidityHigh,HumidityAvg,HumidityLow,PressureMaxIn,PressureMinIn,WindSpeedMaxMPH,WindSpeedAvgMPH,GustSpeedMaxMPH,PrecipitationSumIn
2013-1-1,43.2,38.4,33.6,31.3,28.5,23.8,76,68,60,29.90,29.78,3,0,0,0.00
2013-1-2,38.8,33.1,27.0,29.2,20.9,14.7,74,61,45,30.12,29.88,5,1,0,0.00
2013-1-3,38.3,28.8,23.0,20.2,17.8,14.7,80,64,45,30.15,30.03,4,0,0,0.00
2013-1-4,44.4,33.3,23.4,23.4,20.3,18.5,84,61,40,30.10,29.99,5,2,0,0.00
2013-1-5,45.3,35.2,24.1,29.9,21.9,18.4,80,59,38,30.27,30.04,6,1,0,0.00
2013-1-6,53.2,41.0,26.8,31.6,28.4,24.8,94,63,38,30.08,29.91,4,1,0,0.00
2013-1-7,46.6,38.8,25.5,30.6,26.3,22.6,89,62,46,30.33,30.04,5,2,0,0.00
2013-1-8,55.2,38.2,24.4,34.4,29.5,22.1,92,73,42,30.31,30.24,6,1,0,0.00
2013-1-9,50.0,38.6,28.8,40.8,34.3,27.9,98,86,49,30.28,30.13,3,0,0,0.00
2013-1-10,56.7,46.3,35.4,30.7,29.0,26.3,76,52,34,30.49,30.27,5,2,0,0.00
2013-1-11,44.4,39.7,32.7,41.2,34.8,27.9,98,83,60,30.38,29.99,4,1,0,0.01
2013-1-12,52.9,43.9,40.5,46.0,42.1,40.0,99,94,77,30.07,29.99,4,1,0,0.00
2013-1-13,56.1,48.9,41.7,55.5,48.4,41.2,99,98,96,30.03,29.86,5,1,0,0.00
2013-1-14,59.5,52.3,39.0,58.1,46.1,35.5,98,80,62,30.19,29.85,5,2,0,0.12
2013-1-15,39.6,38.1,35.2,37.5,36.4,33.9,96,93,89,30.23,30.04,5,1,0,0.75
2013-1-16,39.9,37.1,34.2,38.9,35.9,32.9,97,95,93,30.04,29.74,4,1,0,0.29
2013-1-17,43.3,39.9,36.9,40.0,33.4,28.4,98,78,59,30.02,29.86,5,1,0,0.02
2013-1-18,37.9,33.0,26.1,29.7,19.5,12.3,78,58,38,30.38,29.93,7,2,0,0.00
2013-1-19,56.5,39.7,29.1,29.4,25.4,21.9,77,59,34,30.32,29.86,8,3,0,0.00
2013-1-20,61.5,44.7,31.8,32.7,23.3,9.4,77,46,22,29.97,29.72,6,2,0,0.00
2013-1-21,46.0,35.6,28.8,27.0,19.4,12.1,68,52,38,29.99,29.66,8,2,0,0.00
2013-1-22,28.4,20.6,16.3,13.3,0.2,-4.5,54,41,28,30.17,29.81,8,3,0,0.00
2013-1-23,26.1,19.6,10.2,13.5,2.2,-0.8,76,48,32,30.24,30.02,6,1,0,0.00
2013-1-24,27.3,20.0,13.5,16.2,9.4,2.3,87,65,36,30.41,29.98,6,2,0,0.00
2013-1-25,23.0,19.1,14.0,16.3,8.3,1.1,84,63,47,30.41,29.95,4,1,0,0.00
2013-1-26,34.7,27.3,21.4,24.4,20.6,16.5,84,76,60,30.32,29.97,3,1,0,0.03
2013-1-27,39.2,29.2,22.6,21.9,18.9,16.6,88,66,45,30.49,30.33,4,1,0,0.00
2013-1-28,47.1,36.7,29.7,41.4,32.5,21.8,95,85,72,30.39,29.94,6,2,0,0.16
2013-1-29,68.4,52.9,39.2,53.0,46.0,37.4,97,79,57,30.01,29.85,6,1,0,0.00
2013-1-30,70.9,60.3,51.1,61.4,55.8,48.0,97,86,69,29.85,29.10,7,2,0,1.10
2013-1-31,62.2,42.6,27.7,60.7,27.5,12.8,97,57,35,29.79,29.02,11,3,0,0.48
2013-2-1,31.6,25.8,18.1,24.7,10.8,2.8,89,54,35,30.28,29.68,9,3,0,0.00
2013-2-2,31.3,22.9,13.1,24.9,13.1,3.8,90,68,41,30.29,29.89,7,1,0,0.00
2013-2-3,33.3,28.4,21.4,27.8,24.2,16.6,96,85,56,29.89,29.71,4,1,0,0.01
2013-2-4,35.8,29.9,23.4,22.4,15.7,11.5,65,55,46,29.99,29.77,6,2,0,0.00
2013-2-5,41.9,34.8,28.6,29.7,25.6,21.8,82,69,58,29.82,29.72,4,0,0,0.00
2013-2-6,47.8,36.6,27.1,30.4,26.3,21.7,88,68,45,30.23,29.82,5,1,0,0.00
2013-2-7,40.1,33.2,25.0,29.0,24.5,20.6,86,71,57,30.34,30.08,7,2,0,0.00
2013-2-8,41.0,36.3,32.2,36.9,31.3,21.8,96,83,60,30.08,29.63,8,2,0,0.24
2013-2-9,43.0,34.0,28.2,22.4,18.6,14.3,65,54,37,30.29,29.80,8,3,0,0.00
2013-2-10,45.1,33.3,19.4,27.1,18.7,14.1,85,57,33,30.38,30.13,6,2,0,0.00
2013-2-11,54.9,44.8,36.0,49.3,41.4,27.9,97,88,48,30.13,29.59,5,2,0,0.13
2013-2-12,58.3,46.9,38.5,31.9,29.1,26.1,71,51,32,29.88,29.70,6,1,0,0.00
2013-2-13,45.7,37.2,29.7,36.4,30.0,24.3,96,76,57,29.83,29.53,6,1,0,0.25
2013-2-14,50.9,38.5,29.7,33.2,28.9,25.2,96,71,39,29.91,29.67,4,1,0,0.02
2013-2-15,61.9,42.5,28.8,38.1,31.3,26.5,93,69,31,29.92,29.77,8,2,0,0.10
2013-2-16,38.8,34.9,29.3,34.1,27.7,15.4,97,76,52,29.89,29.72,6,2,0,0.00
2013-2-17,33.1,26.9,23.0,16.8,11.0,4.8,69,51,36,30.10,29.72,12,4,0,0.01
2013-2-18,43.9,29.7,17.6,18.1,11.3,7.4,67,47,28,30.27,30.05,6,2,0,0.00
2013-2-19,44.1,38.0,32.5,39.0,29.6,17.7,93,72,54,30.05,29.61,7,2,0,0.07
2013-2-20,42.4,32.5,23.9,24.4,16.0,8.5,69,51,37,30.06,29.74,7,3,0,0.00
2013-2-21,40.5,29.8,22.6,18.1,14.1,8.6,61,52,38,30.20,30.02,7,3,0,0.00
2013-2-22,32.7,30.6,28.0,29.3,22.9,17.1,91,73,60,30.27,30.10,7,2,0,0.02
2013-2-23,45.5,37.8,31.6,41.9,36.3,29.5,97,94,87,30.10,29.70,4,1,0,0.06
2013-2-24,53.8,42.0,31.5,40.6,30.6,18.1,97,67,37,30.01,29.69,7,3,0,0.00
2013-2-25,49.1,35.8,25.3,25.2,22.1,18.3,78,59,37,30.10,30.00,7,1,0,0.00
2013-2-26,43.2,37.0,27.1,42.4,33.2,22.1,97,86,68,30.10,29.47,12,3,0,0.71
2013-2-27,45.3,41.6,38.5,43.4,40.2,37.1,98,95,80,29.52,29.39,3,2,0,0.04
2013-3-12,58.3,47.1,39.9,44.1,31.1,-99.9,67,58,52,29.84,29.65,6,-26,0,1.03
2013-3-13,51.4,40.3,30.0,30.8,25.8,18.4,85,58,33,29.96,29.78,6,2,0,0.00
2013-3-14,46.4,36.7,29.8,20.7,18.0,15.1,59,47,32,30.02,29.91,9,4,0,0.00
2013-3-15,58.5,42.1,25.7,33.4,24.4,17.6,77,52,31,29.98,29.65,9,1,0,0.00
2013-3-16,60.6,46.9,37.4,46.3,36.5,30.7,81,68,53,29.78,29.50,8,2,0,0.02
2013-3-17,40.5,36.6,30.4,32.1,29.5,25.9,93,76,59,30.16,29.78,4,0,0,0.00
2013-3-18,36.5,34.7,30.0,35.3,30.3,22.5,96,85,57,30.21,29.77,7,2,0,0.41
2013-3-19,60.3,44.7,34.9,40.2,29.6,9.1,97,64,17,29.80,29.59,6,2,0,0.00
2013-3-20,54.0,43.9,31.6,25.5,15.5,9.9,58,32,22,29.88,29.64,6,2,0,0.00
2013-3-21,38.8,33.1,26.8,26.5,15.7,8.4,81,49,35,29.78,29.64,7,3,0,0.00
2013-3-22,50.5,35.7,22.8,23.2,16.8,10.5,66,47,32,29.88,29.75,7,2,0,0.00
2013-3-23,55.0,40.3,25.0,26.5,22.1,18.5,76,51,29,29.92,29.78,5,2,0,0.00
2013-3-24,42.6,35.9,28.6,31.4,24.4,21.1,95,65,44,29.89,29.53,6,1,0,0.00
2013-3-25,40.1,34.9,32.0,34.6,32.6,30.7,96,91,80,29.58,29.38,5,1,0,0.65
2013-3-26,50.7,40.7,31.1,33.3,30.4,27.1,97,70,42,29.88,29.58,7,2,0,0.03
2013-3-27,51.1,42.1,34.3,31.8,27.7,25.7,71,57,42,30.02,29.88,6,3,0,0.00
2013-3-28,48.6,40.9,30.9,31.8,28.2,24.2,76,61,49,30.12,29.98,7,2,0,0.00
2013-3-29,56.1,45.6,36.7,33.9,30.3,28.3,75,56,36,30.16,30.03,5,1,0,0.00
2013-3-30,61.5,46.8,33.6,32.4,28.5,25.8,77,52,27,30.12,29.99,6,1,0,0.00
2013-3-31,52.2,47.1,41.4,48.8,39.5,29.6,95,76,53,30.00,29.63,4,2,0,0.01
2013-4-1,64.8,48.3,36.9,43.1,37.0,22.6,99,69,38,29.87,29.62,10,2,0,0.00
2013-4-2,51.6,41.2,32.0,22.1,16.7,13.1,57,38,23,30.06,29.88,5,2,0,0.00
2013-4-3,53.6,39.6,25.3,20.2,17.2,12.7,71,43,21,30.27,30.06,6,2,0,0.00
2013-4-4,48.4,37.6,25.0,34.3,19.5,13.5,89,51,26,30.30,29.97,6,2,0,0.06
2013-4-5,67.5,50.6,36.7,37.9,31.7,22.7,95,56,24,29.96,29.69,7,2,0,0.25
2013-4-6,59.7,47.5,35.8,31.6,23.1,18.6,60,39,20,30.22,29.92,9,2,0,0.00
2013-4-7,73.2,55.2,36.9,42.2,35.8,27.8,75,50,31,30.16,29.86,6,2,0,0.00
2013-4-8,81.5,67.4,50.4,50.4,45.8,41.0,72,47,30,29.96,29.81,8,2,0,0.00
2013-4-9,87.8,74.3,59.5,56.8,53.2,49.7,70,49,32,29.95,29.79,5,2,0,0.00
2013-4-10,92.7,79.5,62.4,60.8,55.7,52.1,69,45,32,29.84,29.64,5,2,0,0.00
2013-4-11,86.5,72.6,57.0,63.8,56.7,51.9,84,60,36,29.73,29.57,9,2,0,0.00
2013-4-12,82.4,61.4,51.6,65.8,56.9,49.9,99,86,55,29.65,29.40,8,3,0,0.46
2013-4-13,72.3,57.3,42.8,49.7,41.6,38.2,86,58,32,29.82,29.62,6,1,0,0.00
2013-4-14,69.3,56.6,42.3,44.7,40.2,36.6,83,57,37,30.03,29.82,5,2,0,0.00
2013-4-15,63.7,58.6,54.1,50.3,47.0,43.4,71,65,60,30.17,30.00,9,3,0,0.00
2013-4-16,77.7,64.3,55.2,59.7,54.0,47.1,83,70,53,30.19,29.99,10,2,0,0.00
2013-4-17,79.3,66.2,57.0,61.7,58.3,54.2,99,78,55,30.10,29.99,6,2,0,0.06
2013-4-18,78.3,66.4,59.0,64.1,58.2,54.6,96,76,53,30.09,29.86,10,4,0,0.16
2013-4-19,77.7,66.6,50.2,66.4,60.0,47.7,95,80,62,29.87,29.45,7,2,0,1.08
2013-4-20,62.6,52.3,44.8,47.1,32.9,27.4,91,49,31,30.22,29.64,9,2,0,0.07
2013-4-21,57.9,46.1,36.7,30.6,27.3,23.4,70,49,29,30.50,30.23,6,2,0,0.00
2013-4-22,56.5,46.3,33.6,38.8,35.4,30.0,92,67,50,30.47,30.28,10,3,0,0.00
2013-4-23,65.3,51.2,45.3,47.0,41.3,36.6,87,70,50,30.28,30.00,5,1,0,0.00
2013-4-24,80.1,60.7,42.4,57.8,49.7,40.7,96,70,43,30.01,29.67,7,2,0,0.00
2013-4-25,68.5,54.0,44.4,48.4,35.7,27.7,73,52,25,30.20,29.85,7,2,0,0.00
2013-4-26,72.5,54.7,42.8,42.0,37.6,34.7,83,55,26,30.36,30.19,6,1,0,0.00
2013-4-27,73.4,58.0,42.6,44.9,40.7,37.3,88,56,30,30.31,30.16,6,2,0,0.00
2013-4-28,64.9,55.7,44.8,50.9,44.7,41.1,90,68,43,30.19,30.02,6,2,0,0.03
2013-4-29,59.4,55.2,52.9,57.7,53.4,45.8,98,94,69,30.05,29.93,8,3,0,0.20
2013-4-30,58.6,55.5,52.2,56.6,54.0,49.7,99,95,86,30.17,29.97,5,1,0,0.06
2013-5-1,70.9,57.8,44.4,50.2,44.0,37.8,95,64,31,30.30,30.16,6,2,0,0.00
2013-5-2,68.5,54.3,42.3,50.7,45.2,41.0,96,73,49,30.34,30.20,8,2,0,0.00
2013-5-3,66.4,54.6,43.9,49.0,43.0,39.5,97,68,38,30.28,30.17,9,3,0,0.00
2013-5-4,68.5,55.8,45.0,47.9,43.1,39.4,84,64,45,30.23,30.06,11,3,0,0.00
2013-5-5,64.2,52.1,42.6,46.2,41.2,37.7,86,67,51,30.14,30.02,8,3,0,0.00
2013-5-6,60.8,54.9,49.3,56.7,50.8,44.1,95,86,80,30.06,29.92,8,2,0,0.00
2013-5-7,63.3,59.3,57.4,62.1,58.6,56.5,99,98,94,29.93,29.79,8,3,0,1.00
2013-5-8,69.3,58.9,54.7,58.6,56.1,50.4,99,91,61,29.89,29.79,5,0,0,0.20
2013-5-9,77.2,62.4,53.6,62.2,56.4,53.3,99,83,55,29.88,29.79,4,1,0,0.00
2013-5-10,85.6,68.9,54.0,63.6,58.4,53.4,98,73,41,29.90,29.72,7,1,0,0.40
2013-5-11,79.0,66.6,62.1,68.3,63.5,60.8,99,91,61,29.78,29.56,3,1,0,0.54
2013-5-12,65.3,58.5,48.0,62.3,42.1,30.1,99,58,32,29.91,29.62,10,2,0,0.00
2013-5-13,60.3,50.1,39.4,37.4,31.8,25.8,85,52,29,30.05,29.90,6,1,0,0.00
2013-5-14,64.8,51.9,36.3,42.2,35.9,31.3,89,57,35,30.12,29.92,5,1,0,0.00
2013-5-15,86.9,66.3,50.4,66.7,54.6,42.5,87,67,50,29.92,29.55,5,1,0,0.00
2013-5-16,82.6,72.7,63.1,65.2,60.6,55.2,83,67,51,29.80,29.61,5,1,0,0.00
2013-5-17,83.7,71.2,57.7,61.8,56.6,53.2,90,62,40,30.00,29.79,4,1,0,0.00
2013-5-18,66.7,61.6,58.5,59.6,56.6,53.4,98,84,66,30.11,30.00,5,2,0,0.12
2013-5-19,77.7,65.6,58.5,66.3,62.4,57.9,99,91,67,30.08,29.95,4,1,0,0.01
2013-5-20,83.1,71.2,64.9,70.6,67.1,64.6,99,88,62,29.99,29.83,4,1,0,0.01
2013-5-21,84.0,72.9,65.8,72.1,68.4,65.2,99,87,67,29.87,29.73,5,1,0,0.00
2013-5-22,87.3,75.9,67.3,74.5,70.1,63.9,99,84,63,29.81,29.69,5,1,0,0.00
2013-5-23,81.5,71.7,62.6,69.9,67.0,61.6,98,86,66,29.76,29.60,4,1,0,1.17
2013-5-24,62.6,55.9,47.1,62.1,48.5,34.4,99,77,58,30.04,29.59,10,3,0,0.07
2013-5-25,66.7,53.6,42.8,43.8,37.7,32.8,70,56,36,30.09,29.98,9,3,0,0.00
2013-5-26,73.8,58.9,45.3,45.0,39.8,36.8,73,52,27,30.12,30.01,6,1,0,0.00
2013-5-27,70.5,60.3,47.5,52.6,46.3,40.9,85,62,39,30.18,30.05,4,0,0,0.00
2013-5-28,84.4,66.4,55.6,69.8,60.4,51.1,99,82,59,30.08,29.92,5,1,0,1.24
2013-5-29,88.2,75.9,65.1,70.6,67.1,64.7,99,76,53,30.00,29.92,5,1,0,0.01
2013-5-30,89.1,77.8,65.7,72.5,67.1,62.5,91,71,55,30.05,29.95,4,1,0,0.00
2013-5-31,90.7,77.9,64.8,70.6,66.3,62.1,93,69,52,30.02,29.88,4,1,0,0.00
2013-6-1,91.8,79.0,67.3,72.7,67.3,62.9,87,69,52,29.90,29.77,5,1,0,0.00
2013-6-2,82.9,75.5,68.9,71.8,67.5,63.5,98,77,65,29.78,29.71,5,2,0,0.23
2013-6-3,79.3,70.7,65.7,71.3,66.6,57.3,99,87,67,29.81,29.67,3,0,0,0.86
2013-6-4,76.3,65.9,58.8,57.0,50.4,45.2,75,59,38,30.00,29.81,4,1,0,0.00
2013-6-5,79.7,67.1,53.4,60.6,55.2,50.6,94,68,48,30.05,29.91,4,1,0,0.00
2013-6-6,72.0,66.3,60.8,64.5,59.5,51.6,98,79,60,29.94,29.70,5,2,0,0.62
2013-6-7,70.2,67.3,64.9,69.7,66.9,64.6,99,99,97,29.70,29.45,4,0,0,2.57
2013-6-8,81.9,70.0,62.4,65.6,63.2,60.0,99,81,53,29.95,29.58,4,1,0,0.02
2013-6-9,81.3,72.7,63.5,70.2,66.2,61.7,94,81,66,30.06,29.93,5,2,0,0.01
2013-6-10,78.8,71.7,67.8,75.6,70.7,67.5,99,97,90,29.97,29.65,5,1,0,1.44
2013-6-11,85.1,73.3,65.8,70.3,66.5,63.7,99,81,59,29.72,29.62,5,1,0,0.00
2013-6-12,89.8,77.6,66.7,72.6,67.1,61.8,89,72,50,29.73,29.63,6,1,0,0.00
2013-6-13,86.7,74.3,67.6,73.5,68.0,59.0,98,81,60,29.65,29.33,6,2,0,0.04
2013-6-14,78.8,69.4,60.6,59.7,56.4,54.0,87,64,44,29.84,29.45,7,2,0,0.00
2013-6-15,83.8,71.9,61.5,63.6,59.1,54.9,83,65,44,29.95,29.84,6,1,0,0.00
2013-6-16,83.7,73.1,63.9,70.4,65.3,60.0,90,77,62,29.88,29.75,4,1,0,0.00
2013-6-17,87.1,77.1,68.9,72.6,69.2,65.9,92,78,60,29.83,29.73,4,0,0,0.02
2013-6-18,75.4,69.9,64.2,70.0,67.1,63.6,98,91,79,29.77,29.65,4,0,0,0.64
2013-6-19,76.8,68.1,63.5,66.7,64.2,61.9,99,88,70,30.01,29.74,3,0,0,0.00
2013-6-20,80.2,70.0,61.2,64.3,61.1,55.7,99,75,48,30.15,30.01,4,1,0,0.00
2013-6-21,84.4,69.3,56.5,62.4,57.2,53.5,93,68,41,30.18,30.08,4,1,0,0.00
2013-6-22,86.4,73.5,61.3,71.0,65.5,59.9,97,78,58,30.12,29.99,4,1,0,0.00
2013-6-23,85.3,74.3,67.6,74.4,70.0,65.5,98,87,68,30.05,29.93,3,0,0,1.56
2013-6-24,89.6,76.3,68.9,75.3,71.2,68.3,99,85,59,30.00,29.89,3,1,0,0.01
2013-6-25,91.0,78.8,68.4,76.1,71.4,65.4,98,80,58,29.90,29.75,3,1,0,0.00
2013-6-26,88.5,76.5,69.1,76.8,69.3,64.3,89,79,63,29.78,29.66,2,0,0,0.00
2013-6-27,80.6,73.2,67.8,73.0,69.8,66.6,98,89,76,29.70,29.48,4,1,0,0.00
2013-6-28,87.4,73.7,68.9,74.9,69.9,67.0,99,89,62,29.50,29.32,7,1,0,2.90
2013-6-29,87.4,74.7,64.6,70.5,67.0,63.4,99,79,51,29.54,29.38,4,0,0,0.00
2013-6-30,84.6,76.4,69.8,76.1,72.3,67.5,97,88,74,29.71,29.54,3,0,0,0.42
2013-7-1,82.8,74.7,69.6,74.6,71.7,68.6,98,91,75,29.84,29.70,4,1,0,0.13
2013-7-2,81.0,75.3,72.1,74.2,72.2,71.1,97,90,78,30.04,29.84,4,1,0,0.13
2013-7-3,87.3,75.3,70.7,78.0,72.9,69.8,99,93,74,30.11,30.04,3,1,0,1.35
2013-7-4,91.8,79.4,72.7,77.8,73.4,71.4,97,83,61,30.14,30.02,4,1,0,0.00
2013-7-5,92.8,80.4,72.0,76.8,72.9,69.8,93,79,59,30.10,29.98,5,1,0,0.00
2013-7-6,93.4,80.2,73.4,78.4,73.0,70.5,93,80,59,30.06,29.93,3,1,0,0.00
2013-7-7,93.9,78.9,70.0,78.3,72.0,68.2,96,80,57,29.98,29.86,5,1,0,0.37
2013-7-8,86.4,75.1,69.4,75.4,70.2,68.2,97,86,59,29.98,29.89,3,0,0,0.39
2013-7-9,85.5,76.8,70.0,76.5,71.8,68.2,95,85,71,29.98,29.86,3,0,0,0.00
2013-7-10,92.7,78.3,71.8,78.2,73.5,69.7,94,86,62,29.87,29.72,3,0,0,0.23
2013-7-11,88.3,76.3,71.6,73.5,71.1,68.5,95,85,59,29.78,29.70,3,0,0,0.08
2013-7-12,73.0,68.7,65.8,69.1,66.9,64.5,97,94,86,29.90,29.75,5,0,0,2.31
2013-7-13,86.9,74.9,68.2,75.9,70.2,66.7,96,86,69,30.14,29.90,2,0,0,0.00
2013-7-14,93.2,80.0,72.7,75.6,73.0,69.3,96,81,55,30.21,30.13,4,1,0,0.00
2013-7-15,95.7,80.3,71.2,77.0,72.8,69.7,95,80,50,30.18,30.05,3,0,0,0.00
2013-7-16,96.8,83.0,75.6,77.5,73.2,70.1,88,73,51,30.11,30.02,3,0,0,0.00
2013-7-17,98.1,83.1,74.5,77.1,73.5,70.4,88,74,50,30.08,29.95,3,0,0,0.00
2013-7-18,100.8,84.8,75.0,80.8,76.1,72.5,92,77,52,29.98,29.86,4,0,0,0.00
2013-7-19,98.1,85.3,77.0,82.0,76.2,71.0,89,75,56,29.88,29.73,3,1,0,0.00
2013-7-20,97.3,83.4,75.9,78.2,74.2,70.7,90,75,51,29.76,29.65,4,1,0,0.00
2013-7-21,94.5,78.7,72.0,74.8,71.6,69.0,94,80,51,29.81,29.72,3,0,0,0.03
2013-7-22,91.0,78.5,71.8,77.6,73.1,68.7,96,84,64,29.79,29.61,3,0,0,0.10
2013-7-23,89.4,77.7,71.4,73.8,70.4,68.1,96,80,56,29.62,29.51,5,1,0,0.00
2013-7-24,85.8,76.1,70.2,71.4,66.9,60.9,89,74,57,29.77,29.53,3,0,0,0.00
2013-7-25,84.0,70.5,62.1,61.5,58.2,53.8,83,66,42,29.89,29.76,0,0,0,0.00
2013-7-26,89.2,72.0,61.3,63.7,61.6,59.0,94,73,40,29.97,29.88,0,0,0,0.00
2013-7-27,85.6,71.7,65.8,72.0,66.7,61.7,94,85,63,29.93,29.79,0,0,0,0.02
2013-7-28,89.2,74.2,68.7,73.1,68.9,67.2,96,85,55,29.84,29.74,0,0,0,0.00
2013-7-29,86.0,72.8,64.4,68.3,60.3,55.6,91,68,37,30.03,29.84,0,0,0,0.00
2013-7-30,85.1,71.4,62.2,64.6,60.6,56.0,86,70,46,30.10,29.99,4,0,0,0.00
2013-7-31,78.8,71.0,64.0,71.0,66.2,61.6,95,85,72,30.02,29.87,3,0,0,0.06
2013-8-1,87.4,71.7,67.5,73.7,69.0,66.4,97,92,64,29.88,29.67,2,1,0,0.26
2013-8-2,90.0,74.9,64.9,68.6,65.8,63.1,95,75,45,29.83,29.71,5,1,0,0.00
2013-8-3,80.8,71.3,66.4,70.1,66.2,63.9,94,85,68,29.84,29.78,2,0,0,0.01
2013-8-4,82.6,71.0,63.5,66.0,60.4,55.5,96,72,46,29.89,29.77,5,1,0,0.01
2013-8-5,85.1,68.9,58.5,61.4,57.2,53.8,86,68,36,29.98,29.87,4,0,0,0.00
2013-8-6,70.5,68.4,66.0,66.6,64.9,60.3,95,89,81,29.95,29.87,3,1,0,0.06
2013-8-7,84.9,74.3,68.2,74.8,69.9,66.1,95,87,72,29.94,29.85,3,1,0,0.03
2013-8-8,88.5,76.9,72.5,76.6,72.5,69.6,96,87,68,29.90,29.82,5,1,0,0.45
2013-8-9,90.3,80.5,73.6,78.5,74.4,71.4,96,83,65,29.83,29.71,6,1,0,0.00
2013-8-10,90.0,76.8,69.8,71.5,68.1,63.5,89,76,43,29.95,29.79,3,0,0,0.00
2013-8-11,86.9,75.3,69.8,70.5,68.4,65.8,92,80,55,29.98,29.87,5,0,0,0.00
2013-8-12,93.9,77.9,69.3,72.1,69.5,67.3,96,77,46,29.89,29.77,4,0,0,0.00
2013-8-13,88.3,77.0,69.6,73.1,70.8,67.0,94,82,58,29.76,29.59,4,1,0,0.10
2013-8-14,77.4,66.4,58.8,66.2,53.5,49.6,89,64,44,29.97,29.68,7,1,0,0.00
2013-8-15,83.7,66.0,55.4,56.4,53.3,49.6,88,67,33,30.07,29.95,5,0,0,0.00
2013-8-16,80.6,66.5,55.2,59.6,56.3,53.1,94,72,45,30.07,30.00,3,0,0,0.00
2013-8-17,81.5,68.3,57.9,61.9,58.1,55.1,91,72,45,30.14,30.06,5,1,0,0.00
2013-8-18,70.9,66.7,63.1,65.5,62.9,61.2,94,88,76,30.10,30.04,2,0,0,0.13
2013-8-19,73.4,67.1,60.6,67.2,63.4,59.5,97,88,80,30.05,29.93,2,0,0,0.00
2013-8-20,89.2,74.7,63.9,71.6,67.6,62.5,98,80,52,30.04,29.95,4,0,0,0.00
2013-8-21,89.2,76.1,67.5,75.1,70.5,66.3,96,84,61,30.07,29.92,4,1,0,0.12
2013-8-22,89.8,77.2,70.0,71.4,69.2,67.0,97,78,52,29.95,29.79,4,1,0,0.00
2013-8-23,74.8,69.2,61.5,70.2,65.5,60.1,96,88,77,29.98,29.79,3,0,0,0.51
2013-8-24,89.6,69.4,60.3,63.9,61.1,58.6,98,78,38,30.20,29.99,4,1,0,0.00
2013-8-25,85.6,70.2,61.5,64.6,61.0,57.1,96,75,45,30.29,30.14,4,1,0,0.00
2013-8-26,93.6,72.6,59.4,67.2,61.5,55.4,88,70,39,30.17,29.88,5,1,0,0.00
2013-8-27,93.4,77.2,68.2,74.6,68.9,63.2,93,77,52,29.88,29.73,5,1,0,0.03
2013-8-28,77.4,73.8,71.6,72.8,70.8,68.1,97,90,82,29.79,29.66,2,0,0,0.09
2013-8-29,86.0,75.4,70.7,73.5,70.5,67.5,97,86,64,29.89,29.68,4,0,0,0.01
2013-8-30,89.4,75.7,67.3,73.4,69.3,65.8,96,82,55,29.91,29.76,5,1,0,0.00
2013-8-31,91.0,77.3,68.9,76.7,70.4,66.2,92,80,60,29.78,29.64,3,1,0,0.00
2013-9-1,96.4,78.2,67.6,75.2,70.3,65.8,95,78,48,29.71,29.61,4,1,0,0.00
2013-9-2,90.3,76.8,68.7,76.0,71.4,66.3,98,85,60,29.68,29.57,3,0,0,0.54
2013-9-3,87.3,75.9,66.9,71.1,64.2,56.8,92,69,43,29.82,29.58,4,1,0,0.00
2013-9-4,89.1,69.2,57.7,61.6,56.9,53.4,89,68,34,29.96,29.81,3,0,0,0.00
2013-9-5,88.2,70.9,59.4,65.1,59.2,52.7,90,69,43,29.99,29.87,4,1,0,0.00
2013-9-6,80.4,64.8,55.9,54.6,50.9,46.2,82,63,37,30.13,29.99,3,0,0,0.00
2013-9-7,83.3,65.8,53.2,65.9,58.2,50.9,93,78,54,30.01,29.79,3,1,0,0.00
2013-9-8,93.6,74.0,64.0,70.0,64.7,61.2,91,74,44,29.91,29.72,4,0,0,0.00
2013-9-9,81.1,70.1,62.4,67.2,59.8,51.7,88,70,59,30.06,29.90,5,1,0,0.00
2013-9-10,94.1,78.4,70.2,77.7,71.5,66.8,92,80,59,30.04,29.94,4,1,0,0.00
2013-9-11,95.5,80.6,71.1,77.5,72.6,69.6,96,78,48,30.01,29.86,5,1,0,0.00
2013-9-12,87.4,74.3,68.5,78.8,69.9,65.8,97,87,69,29.86,29.60,3,0,0,1.14
2013-9-13,76.8,68.4,60.4,67.8,58.5,50.6,97,73,43,29.80,29.56,3,0,0,0.00
2013-9-14,73.9,59.6,52.0,50.7,47.5,45.6,85,66,40,30.02,29.80,4,0,0,0.01
2013-9-15,79.5,61.1,47.5,59.2,52.2,45.2,93,74,45,30.13,29.96,4,0,0,0.00
2013-9-16,74.3,62.9,56.5,61.3,57.4,54.1,93,83,63,30.08,29.91,3,0,0,0.03
2013-9-17,72.9,57.6,48.7,55.6,47.8,43.5,93,72,38,30.31,30.10,3,1,0,0.00
2013-9-18,76.1,56.5,45.0,50.5,47.3,43.5,96,74,39,30.23,30.06,4,0,0,0.00
2013-9-19,81.3,62.8,50.2,61.2,55.0,48.5,96,77,47,30.09,29.94,3,1,0,0.00
2013-9-20,81.7,66.4,54.5,64.7,58.9,52.5,95,78,55,29.97,29.82,6,1,0,0.00
2013-9-21,72.3,65.6,60.3,66.0,61.2,57.0,97,86,73,29.84,29.54,4,1,0,0.89
2013-9-22,72.3,62.3,55.4,60.5,55.7,48.7,97,80,56,29.81,29.59,4,0,0,0.01
2013-9-23,68.0,56.7,49.8,49.6,47.5,45.5,88,72,51,29.97,29.81,4,0,0,0.00
2013-9-24,77.2,57.3,46.8,55.4,48.5,43.8,91,75,40,30.00,29.82,3,0,0,0.00
2013-9-25,77.7,59.0,49.3,56.2,50.0,45.8,94,75,40,29.88,29.75,3,0,0,0.00
2013-9-26,81.1,62.0,54.0,57.1,53.2,50.8,91,75,40,29.95,29.79,3,0,0,0.00
2013-9-27,70.0,60.3,52.5,60.7,55.8,50.2,95,86,68,30.12,29.94,4,0,0,0.00
2013-9-28,66.4,59.7,53.8,58.1,54.5,51.5,94,84,68,30.18,30.09,4,0,0,0.00
2013-9-29,75.9,59.4,49.5,58.6,53.7,48.1,97,83,55,30.10,29.92,4,0,0,0.00
2013-9-30,76.6,60.8,50.4,59.6,54.2,49.3,96,81,52,29.99,29.85,3,0,0,0.00
2013-10-1,82.2,65.4,54.7,63.8,58.6,52.7,95,80,51,29.95,29.84,3,0,0,0.00
2013-10-2,87.3,69.2,57.6,64.8,60.2,55.9,95,75,45,29.97,29.87,4,0,0,0.00
2013-10-3,82.9,69.7,59.9,69.5,63.0,57.3,93,80,61,29.99,29.91,3,0,0,0.00
2013-10-4,89.2,71.5,59.7,69.0,64.3,58.6,98,80,49,29.96,29.87,3,0,0,0.00
2013-10-5,92.3,74.2,64.4,70.6,66.1,62.3,95,78,46,29.96,29.86,3,0,0,0.00
2013-10-6,90.7,74.3,64.8,72.0,66.4,63.4,96,78,52,29.89,29.77,4,1,0,0.00
2013-10-7,72.3,64.9,54.5,69.5,61.0,48.1,97,88,74,29.92,29.65,4,1,0,1.28
2013-10-8,71.2,56.7,49.1,53.2,48.8,45.4,88,76,49,30.16,29.92,3,0,0,0.00
2013-10-9,60.3,54.9,51.1,52.8,50.2,46.1,96,84,74,30.20,30.07,4,0,0,0.20
2013-10-10,56.5,53.7,51.4,55.7,53.0,50.6,98,97,96,30.08,29.85,3,1,0,2.16
2013-10-11,61.0,58.3,55.2,60.7,57.9,54.6,99,99,97,29.86,29.79,3,1,0,2.74
2013-10-12,64.6,61.2,60.1,61.9,60.1,58.6,99,96,89,30.03,29.85,3,0,0,0.19
2013-10-13,61.7,59.4,57.7,59.7,58.1,55.1,98,95,88,30.19,30.02,4,1,0,0.08
2013-10-14,72.7,59.1,51.6,61.1,54.8,51.0,99,87,61,30.21,30.09,4,0,0,0.00
2013-10-15,75.9,59.3,50.0,57.2,52.6,47.3,99,81,37,30.12,29.95,4,0,0,0.00
2013-10-16,71.1,63.7,60.1,63.7,60.0,56.8,97,88,77,29.96,29.77,3,0,0,0.00
2013-10-17,74.1,65.8,59.2,66.0,61.9,55.6,98,88,72,29.77,29.58,6,1,0,0.00
2013-10-18,71.8,57.0,48.2,54.8,46.1,42.3,90,69,39,29.89,29.68,5,1,0,0.00
2013-10-19,64.6,55.2,46.2,57.1,51.8,44.7,96,89,74,29.88,29.66,4,1,0,0.00
2013-10-20,67.1,52.2,43.7,52.9,39.8,35.4,96,65,34,30.00,29.74,4,0,0,0.00
2013-10-21,70.0,51.8,39.7,46.5,42.6,38.0,95,74,38,30.04,29.84,0,0,0,0.00
2013-10-22,67.1,54.0,44.8,52.3,46.2,39.0,92,76,57,29.84,29.69,0,0,0,0.00
2013-10-23,61.2,48.7,42.8,42.8,39.0,35.3,92,70,44,29.78,29.53,0,0,0,0.00
2013-10-24,54.7,42.9,36.9,35.8,31.6,27.0,83,66,41,30.02,29.78,0,0,0,0.00
2013-10-25,58.8,42.2,31.1,36.4,31.3,28.0,90,67,40,30.21,30.02,5,1,0,0.00
2013-10-26,59.0,44.1,30.9,33.3,30.2,26.9,87,61,35,30.20,29.83,5,1,0,0.00
2013-10-27,64.0,48.3,38.5,40.0,36.7,32.8,85,66,38,30.03,29.84,4,0,0,0.00
2013-10-28,69.8,48.4,37.6,45.7,39.5,34.7,90,74,37,30.16,30.02,3,0,0,0.00
2013-10-29,69.8,50.1,39.9,46.4,41.5,36.7,90,74,39,30.27,30.15,3,0,0,0.00
2013-10-30,68.2,54.3,47.5,57.0,50.3,43.4,96,87,67,30.20,30.03,3,0,0,0.03
2013-10-31,67.1,60.5,52.7,59.9,56.8,51.3,97,88,77,30.06,29.65,4,1,0,0.00
2013-11-1,77.7,66.1,57.9,63.4,59.7,55.6,97,81,54,29.64,29.45,7,1,0,0.14
2013-11-2,66.7,56.9,50.0,57.8,46.9,38.7,97,71,48,29.77,29.52,5,1,0,0.00
2013-11-3,61.5,47.8,38.7,41.5,34.2,23.7,82,61,30,30.33,29.77,7,1,0,0.00
2013-11-4,46.9,38.1,30.4,29.7,25.5,22.0,80,62,38,30.51,30.33,5,0,0,0.00
2013-11-5,57.2,46.3,34.9,45.8,38.6,28.3,84,75,62,30.49,30.34,3,0,0,0.00
2013-11-6,73.0,56.8,48.7,54.1,49.4,45.2,89,77,51,30.34,29.93,5,1,0,0.00
2013-11-7,60.1,52.8,42.4,55.0,45.4,25.1,97,77,46,29.96,29.76,8,2,0,0.02
2013-11-8,51.6,41.7,31.5,29.0,26.4,23.0,82,56,36,30.21,29.95,4,1,0,0.00
2013-11-9,59.0,42.6,28.4,30.6,27.7,24.2,86,59,32,30.25,29.91,7,1,0,0.00
2013-11-10,67.5,49.4,39.4,37.3,30.1,26.8,68,49,25,30.11,29.83,9,2,0,0.00
2013-11-11,61.3,47.4,34.2,32.1,29.5,26.8,79,52,30,30.19,29.87,6,1,0,0.00
2013-11-12,52.0,40.4,30.9,37.8,23.2,14.2,67,50,40,30.28,29.84,6,2,0,0.00
2013-11-13,48.9,33.6,27.0,22.2,19.3,17.2,70,56,34,30.37,30.26,5,1,0,0.00
2013-11-14,62.4,37.7,24.8,27.1,21.2,13.4,82,56,21,30.26,30.10,5,1,0,0.00
2013-11-15,65.3,43.4,27.9,41.8,28.2,22.6,89,60,22,30.16,30.05,5,1,0,0.08
2013-11-16,51.8,48.2,43.7,49.9,47.0,41.7,99,96,90,30.20,30.10,4,1,0,0.39
2013-11-17,60.3,55.9,50.0,58.1,54.4,49.7,99,95,88,30.10,29.63,5,2,0,0.00
2013-11-18,72.3,58.7,48.2,60.8,39.6,23.3,98,56,18,29.81,29.56,7,2,0,0.29
2013-11-19,52.2,43.2,36.1,28.5,26.5,25.6,66,52,38,30.26,29.82,8,2,0,0.00
2013-11-20,51.4,36.5,29.3,28.4,25.3,23.0,84,66,33,30.43,30.25,7,1,0,0.00
2013-11-21,50.5,41.1,28.8,39.4,33.8,25.2,93,76,61,30.45,30.27,4,0,0,0.00
2013-11-22,62.4,54.4,44.6,52.6,47.3,38.8,84,77,68,30.27,29.87,4,1,0,0.00
2013-11-23,56.5,43.6,31.5,48.7,28.1,13.6,75,55,35,30.09,29.91,7,3,0,0.00
2013-11-24,33.3,26.6,21.9,13.7,6.3,1.7,55,42,32,30.41,30.08,9,3,0,0.00
2013-11-25,38.5,27.7,17.2,12.7,10.0,7.5,76,49,31,30.45,30.20,7,1,0,0.00
2013-11-26,41.2,34.6,32.5,40.9,28.2,12.7,99,80,42,30.20,29.47,5,1,0,1.48
2013-11-27,39.0,35.8,27.9,37.3,31.3,15.1,98,84,58,29.92,29.37,7,3,0,0.71
2013-11-28,41.2,30.3,24.6,23.8,17.5,13.6,81,60,39,30.35,29.93,8,2,0,0.00
2013-11-29,46.9,31.6,23.4,23.0,20.7,18.2,83,66,37,30.59,30.33,5,1,0,0.00
2013-11-30,39.2,29.2,20.3,25.0,20.4,16.3,86,71,48,30.61,30.24,4,1,0,0.00
2013-12-1,56.3,37.7,22.1,32.0,27.1,18.8,92,68,37,30.23,29.88,4,1,0,0.00
2013-12-2,48.0,42.3,38.7,38.8,35.7,32.0,83,78,67,29.88,29.73,3,0,0,0.00
2013-12-3,61.5,44.3,36.9,41.1,36.6,33.1,89,76,45,29.86,29.73,4,1,0,0.00
2013-12-4,55.8,47.8,36.7,49.6,43.1,34.7,95,84,73,29.95,29.85,4,1,0,0.00
2013-12-5,71.6,60.2,52.5,61.2,56.0,49.5,97,87,67,29.93,29.79,6,2,0,0.00
2013-12-6,64.8,49.9,38.5,63.0,48.4,37.5,97,94,88,30.03,29.74,4,2,0,0.75
2013-12-7,43.9,36.6,29.3,37.1,30.6,21.9,97,80,58,30.43,29.99,5,2,0,0.17
2013-12-8,31.3,28.9,27.5,30.3,24.6,19.9,97,84,69,30.46,30.16,4,1,0,0.00
2013-12-9,34.5,32.3,30.9,33.2,31.5,29.9,99,97,94,30.17,29.89,1,0,0,0.00
2013-12-10,39.2,31.4,23.5,34.9,30.0,22.0,99,95,84,30.10,29.85,2,0,0,0.23
2013-12-11,45.3,28.0,18.3,26.6,21.8,16.6,95,80,45,30.28,30.10,3,0,0,0.34
2013-12-12,35.6,25.8,19.2,21.9,15.9,11.6,90,67,41,30.31,30.12,6,1,0,0.02
2013-12-13,41.7,30.5,19.8,24.8,18.3,12.7,83,62,39,30.17,30.08,4,1,0,0.03
2013-12-14,37.9,34.1,29.7,34.7,30.1,23.5,98,86,75,30.19,29.57,4,1,0,0.74
2013-12-15,49.1,36.3,27.5,38.2,30.5,22.7,98,81,53,29.82,29.50,5,1,0,0.12
2013-12-16,37.8,33.7,29.7,26.5,25.3,23.7,80,71,61,30.06,29.82,4,1,0,0.00
2013-12-17,40.3,35.2,32.4,33.8,30.2,25.4,94,82,75,30.02,29.79,6,1,0,0.00
2013-12-18,44.4,32.9,25.0,31.6,24.7,20.9,97,74,46,30.09,29.86,5,1,0,0.00
2013-12-19,63.7,42.1,24.6,32.4,26.7,21.0,88,59,27,30.08,29.94,6,1,0,0.00
2013-12-20,59.5,51.4,40.5,42.4,34.1,28.4,66,52,37,29.99,29.87,4,1,0,0.00
2013-12-21,72.7,61.3,49.5,61.2,51.4,40.9,80,70,55,29.90,29.76,8,2,0,0.00
2013-12-22,70.7,64.5,61.0,63.5,60.5,58.2,96,87,76,29.88,29.69,8,3,0,0.21
2013-12-23,62.1,53.7,37.6,61.8,50.2,29.4,99,88,70,30.09,29.77,7,2,0,0.79
2013-12-24,42.1,32.8,22.5,28.8,20.1,7.5,76,60,43,30.36,30.07,7,3,0,0.00
2013-12-25,37.8,24.8,18.7,18.4,11.9,8.8,78,58,36,30.44,30.25,5,2,0,0.00
2013-12-26,48.7,30.7,21.2,25.5,20.7,17.3,88,68,40,30.25,30.09,3,1,0,0.00
2013-12-27,54.5,33.8,23.2,23.7,20.9,17.6,82,63,26,30.29,30.18,5,1,0,0.00
2013-12-28,61.7,41.4,26.4,29.8,25.0,21.2,81,55,25,30.22,29.99,5,1,0,0.00
2013-12-29,46.6,42.7,37.2,45.8,39.7,29.1,99,90,60,29.99,29.40,6,1,0,1.15
2013-12-30,44.1,36.8,32.2,38.9,31.7,22.8,99,82,66,30.04,29.69,5,1,0,0.00
2013-12-31,48.7,34.2,27.0,29.9,22.0,17.0,83,62,40,30.19,29.97,5,1,0,0.00
2014-1-1,46.9,33.9,24.3,29.9,25.0,18.5,86,71,47,30.29,29.99,7,1,0,0.00
2014-1-2,38.8,32.4,27.9,33.1,29.4,25.2,96,89,79,29.98,29.46,4,0,0,0.00